createdAt,value
2018-06-19T00:00:31.657Z,11.60
2018-06-19T00:03:02.292Z,11.20
2018-06-19T00:05:32.487Z,12.43
2018-06-19T00:08:03.250Z,11.90
2018-06-19T00:10:34.141Z,11.60
2018-06-19T00:13:05.742Z,11.80
2018-06-19T00:15:37.131Z,11.00
2018-06-19T00:18:12.809Z,12.50
2018-06-19T00:20:43.375Z,11.57
2018-06-19T00:23:14.533Z,11.87
2018-06-19T00:25:44.976Z,12.13
2018-06-19T00:28:15.526Z,11.67
2018-06-19T00:30:45.921Z,12.40
2018-06-19T00:33:16.947Z,11.10
2018-06-19T00:35:47.410Z,12.50
2018-06-19T00:38:18.538Z,10.83
2018-06-19T00:40:49.775Z,12.30
2018-06-19T00:43:20.331Z,11.97
2018-06-19T00:45:51.095Z,12.63
2018-06-19T00:48:22.109Z,12.00
2018-06-19T00:50:52.496Z,11.17
2018-06-19T00:53:22.926Z,12.80
2018-06-19T00:55:53.510Z,12.87
2018-06-19T00:58:23.953Z,11.03
2018-06-19T01:00:54.375Z,12.10
2018-06-19T01:03:24.740Z,11.83
2018-06-19T01:05:55.610Z,11.60
2018-06-19T01:08:25.817Z,12.13
2018-06-19T01:10:56.798Z,10.80
2018-06-19T01:13:27.240Z,12.77
2018-06-19T01:15:57.570Z,12.20
2018-06-19T01:18:27.910Z,12.70
2018-06-19T01:20:58.286Z,11.80
2018-06-19T01:23:28.924Z,11.70
2018-06-19T01:26:00.205Z,11.33
2018-06-19T01:28:30.064Z,13.17
2018-06-19T01:31:00.345Z,12.97
2018-06-19T01:33:31.253Z,13.80
2018-06-19T01:36:01.817Z,12.53
2018-06-19T01:38:32.253Z,14.07
2018-06-19T01:41:02.688Z,12.40
2018-06-19T01:43:33.511Z,14.80
2018-06-19T01:46:03.987Z,14.57
2018-06-19T01:48:34.581Z,14.00
2018-06-19T01:51:05.364Z,14.10
2018-06-19T01:53:36.213Z,15.50
2018-06-19T01:56:06.723Z,13.87
2018-06-19T01:58:37.694Z,13.37
2018-06-19T02:01:08.038Z,13.90
2018-06-19T02:03:38.411Z,13.77
2018-06-19T02:06:08.770Z,12.80
2018-06-19T02:08:39.775Z,13.17
2018-06-19T02:11:10.303Z,13.87
2018-06-19T02:13:40.645Z,12.30
2018-06-19T02:16:10.907Z,11.53
2018-06-19T02:18:41.131Z,12.67
2018-06-19T02:21:11.620Z,11.60
2018-06-19T02:23:43.007Z,11.80
2018-06-19T02:26:13.263Z,11.97
2018-06-19T02:28:43.582Z,10.20
2018-06-19T02:31:13.788Z,10.60
2018-06-19T02:33:44.415Z,12.10
2018-06-19T02:36:14.776Z,11.57
2018-06-19T02:38:45.131Z,12.20
2018-06-19T02:41:17.242Z,11.33
2018-06-19T02:43:47.619Z,11.30
2018-06-19T02:46:17.821Z,11.77
2018-06-19T02:48:48.134Z,11.97
2018-06-19T02:51:18.523Z,11.80
2018-06-19T02:53:49.538Z,11.90
2018-06-19T02:56:20.338Z,11.93
2018-06-19T02:58:50.671Z,10.73
2018-06-19T03:01:21.071Z,11.30
2018-06-19T03:03:51.461Z,11.50
2018-06-19T03:06:21.723Z,11.57
2018-06-19T03:08:52.526Z,9.80
2018-06-19T03:11:22.905Z,9.47
2018-06-19T03:13:53.318Z,10.00
2018-06-19T03:16:23.512Z,9.77
2018-06-19T03:18:54.026Z,10.47
2018-06-19T03:21:24.103Z,9.83
2018-06-19T03:23:56.571Z,9.87
2018-06-19T03:26:26.782Z,9.30
2018-06-19T03:28:56.973Z,8.37
2018-06-19T03:31:27.227Z,9.00
2018-06-19T03:33:57.406Z,7.90
2018-06-19T03:36:28.729Z,7.10
2018-06-19T03:38:59.119Z,7.90
2018-06-19T03:41:29.734Z,7.53
2018-06-19T03:43:59.923Z,7.73
2018-06-19T03:46:30.344Z,6.77
2018-06-19T03:49:00.597Z,7.37
2018-06-19T03:51:31.039Z,6.80
2018-06-19T03:54:01.843Z,7.50
2018-06-19T03:56:32.791Z,7.30
2018-06-19T03:59:03.162Z,6.67
2018-06-19T04:01:33.618Z,6.53
2018-06-19T04:04:04.275Z,7.10
2018-06-19T04:06:34.823Z,6.20
2018-06-19T04:09:07.398Z,5.80
2018-06-19T04:11:37.986Z,5.83
2018-06-19T04:14:09.138Z,5.90
2018-06-19T04:16:39.857Z,5.60
2018-06-19T04:19:09.704Z,6.20
2018-06-19T04:21:40.377Z,5.40
2018-06-19T04:24:11.079Z,5.23
2018-06-19T04:26:42.079Z,5.70
2018-06-19T04:29:12.643Z,4.93
2018-06-19T04:31:42.982Z,4.43
2018-06-19T04:34:13.254Z,5.70
2018-06-19T04:36:43.899Z,4.73
2018-06-19T04:39:15.059Z,5.20
2018-06-19T04:41:48.101Z,4.80
2018-06-19T04:44:18.243Z,5.10
2018-06-19T04:46:48.471Z,4.90
2018-06-19T04:49:21.251Z,5.20
2018-06-19T04:51:51.811Z,4.27
2018-06-19T04:54:22.400Z,4.50
2018-06-19T04:56:52.798Z,4.20
2018-06-19T04:59:23.717Z,5.03
2018-06-19T05:01:55.165Z,4.60
2018-06-19T05:04:25.792Z,5.00
2018-06-19T05:06:56.113Z,5.30
2018-06-19T05:09:26.246Z,3.97
2018-06-19T05:11:57.402Z,5.00
2018-06-19T05:14:27.861Z,4.60
2018-06-19T05:16:58.231Z,4.57
2018-06-19T05:19:28.867Z,4.67
2018-06-19T05:21:59.363Z,4.97
2018-06-19T05:24:29.668Z,4.20
2018-06-19T05:27:00.344Z,4.53
2018-06-19T05:29:30.960Z,4.63
2018-06-19T05:32:01.661Z,4.30
2018-06-19T05:34:32.250Z,4.43
2018-06-19T05:37:02.425Z,4.60
2018-06-19T05:39:32.942Z,4.63
2018-06-19T05:42:03.860Z,4.50
2018-06-19T05:44:34.542Z,4.50
2018-06-19T05:47:05.009Z,4.53
2018-06-19T05:49:35.903Z,4.33
2018-06-19T05:52:06.562Z,4.43
2018-06-19T05:54:37.134Z,4.33
2018-06-19T05:57:07.832Z,4.67
2018-06-19T05:59:38.231Z,4.23
2018-06-19T06:02:08.634Z,4.17
2018-06-19T06:04:39.189Z,4.97
2018-06-19T06:07:09.478Z,4.57
2018-06-19T06:09:39.136Z,4.70
2018-06-19T06:12:11.065Z,4.60
2018-06-19T06:14:41.338Z,4.50
2018-06-19T06:17:11.872Z,4.70
2018-06-19T06:19:42.676Z,5.00
2018-06-19T06:22:13.227Z,5.53
2018-06-19T06:24:43.702Z,5.20
2018-06-19T06:27:14.674Z,4.40
2018-06-19T06:29:45.113Z,4.83
2018-06-19T06:32:15.719Z,4.80
2018-06-19T06:34:47.052Z,5.00
2018-06-19T06:37:17.556Z,4.97
2018-06-19T06:39:48.355Z,5.07
2018-06-19T06:42:20.266Z,4.97
2018-06-19T06:44:50.841Z,5.70
2018-06-19T06:47:21.117Z,5.50
2018-06-19T06:49:51.844Z,5.23
2018-06-19T06:52:22.672Z,5.83
2018-06-19T06:54:53.047Z,5.70
2018-06-19T06:57:23.774Z,5.10
2018-06-19T06:59:54.334Z,5.47
2018-06-19T07:02:24.902Z,5.10
2018-06-19T07:04:55.423Z,5.67
2018-06-19T07:07:25.907Z,5.30
2018-06-19T07:09:56.336Z,5.40
2018-06-19T07:12:26.822Z,5.63
2018-06-19T07:14:57.129Z,5.17
2018-06-19T07:17:27.458Z,5.50
2018-06-19T07:19:59.229Z,6.10
2018-06-19T07:22:29.626Z,6.57
2018-06-19T07:24:59.690Z,6.73
2018-06-19T07:27:30.530Z,6.43
2018-06-19T07:30:00.755Z,7.37
2018-06-19T07:32:31.027Z,7.20
2018-06-19T07:35:01.853Z,6.70
2018-06-19T07:37:32.488Z,6.90
2018-06-19T07:40:03.841Z,6.37
2018-06-19T07:42:34.430Z,7.60
2018-06-19T07:45:05.946Z,7.73
2018-06-19T07:47:35.933Z,7.30
2018-06-19T07:50:06.516Z,7.53
2018-06-19T07:52:37.105Z,6.93
2018-06-19T07:55:07.884Z,7.67
2018-06-19T07:57:38.218Z,7.83
2018-06-19T08:00:09.921Z,8.30
2018-06-19T08:02:40.607Z,7.90
2018-06-19T08:05:10.874Z,8.10
2018-06-19T08:07:41.525Z,8.60
2018-06-19T08:10:11.906Z,8.40
2018-06-19T08:12:42.670Z,7.87
2018-06-19T08:15:13.039Z,8.73
2018-06-19T08:17:43.812Z,8.80
2018-06-19T08:20:15.496Z,9.77
2018-06-19T08:22:46.063Z,8.90
2018-06-19T08:25:16.646Z,8.50
2018-06-19T08:27:47.322Z,9.00
2018-06-19T08:30:18.179Z,9.80
2018-06-19T08:32:48.530Z,10.20
2018-06-19T08:35:18.618Z,9.83
2018-06-19T08:37:49.028Z,10.77
2018-06-19T08:40:19.858Z,10.10
2018-06-19T08:42:50.247Z,10.50
2018-06-19T08:45:19.904Z,11.27
2018-06-19T08:47:50.439Z,10.60
2018-06-19T08:50:20.903Z,12.27
2018-06-19T08:52:51.390Z,10.20
2018-06-19T08:55:23.295Z,10.57
2018-06-19T08:57:53.773Z,11.30
2018-06-19T09:00:24.327Z,11.67
2018-06-19T09:02:55.366Z,13.20
2018-06-19T09:05:26.092Z,11.33
2018-06-19T09:07:57.096Z,11.67
2018-06-19T09:10:27.846Z,13.17
2018-06-19T09:12:58.886Z,13.00
2018-06-19T09:15:29.254Z,12.80
2018-06-19T09:17:59.940Z,13.17
2018-06-19T09:20:30.723Z,13.40
2018-06-19T09:23:01.244Z,15.73
2018-06-19T09:25:31.558Z,14.40
2018-06-19T09:28:01.756Z,15.60
2018-06-19T09:30:34.637Z,14.10
2018-06-19T09:33:05.054Z,14.10
2018-06-19T09:35:35.618Z,13.90
2018-06-19T09:38:06.251Z,14.77
2018-06-19T09:40:37.277Z,13.27
2018-06-19T09:43:08.067Z,14.20
2018-06-19T09:45:38.467Z,13.17
2018-06-19T09:48:08.705Z,14.13
2018-06-19T09:50:39.238Z,13.10
2018-06-19T09:53:09.912Z,14.07
2018-06-19T09:55:41.204Z,13.03
2018-06-19T09:58:12.199Z,13.67
2018-06-19T10:00:42.630Z,13.97
2018-06-19T10:03:13.402Z,13.97
2018-06-19T10:05:44.303Z,14.63
2018-06-19T10:08:14.855Z,14.80
2018-06-19T10:10:45.446Z,13.97
2018-06-19T10:13:16.077Z,15.53
2018-06-19T10:15:47.067Z,14.87
2018-06-19T10:18:17.419Z,14.40
2018-06-19T10:20:47.822Z,14.33
2018-06-19T10:23:18.592Z,15.20
2018-06-19T10:25:49.379Z,15.13
2018-06-19T10:28:19.858Z,13.80
2018-06-19T10:30:50.818Z,14.67
2018-06-19T10:33:21.349Z,16.30
2018-06-19T10:35:51.966Z,15.33
2018-06-19T10:38:22.380Z,15.70
2018-06-19T10:40:52.767Z,13.40
2018-06-19T10:43:23.305Z,14.23
2018-06-19T10:45:53.880Z,13.70
2018-06-19T10:48:24.043Z,13.43
2018-06-19T10:50:55.010Z,12.70
2018-06-19T10:53:24.964Z,12.40
2018-06-19T10:55:55.302Z,11.70
2018-06-19T10:58:25.755Z,12.90
2018-06-19T11:00:58.181Z,12.60
2018-06-19T11:03:28.671Z,13.30
2018-06-19T11:05:59.110Z,12.03
2018-06-19T11:08:29.651Z,13.20
2018-06-19T11:11:00.157Z,16.73
2018-06-19T11:13:30.677Z,14.77
2018-06-19T11:16:01.703Z,12.20
2018-06-19T11:18:32.027Z,11.60
2018-06-19T11:21:02.863Z,11.80
2018-06-19T11:23:33.077Z,11.87
2018-06-19T11:26:03.450Z,11.73
2018-06-19T11:28:33.881Z,13.13
2018-06-19T11:31:04.616Z,11.70
2018-06-19T11:33:35.182Z,11.27
2018-06-19T11:36:05.598Z,12.73
2018-06-19T11:38:36.042Z,12.83
2018-06-19T11:41:06.823Z,13.30
2018-06-19T11:43:37.364Z,11.77
2018-06-19T11:46:07.911Z,12.27
2018-06-19T11:48:37.909Z,11.63
2018-06-19T11:51:08.073Z,10.70
2018-06-19T11:53:38.462Z,12.80
2018-06-19T11:56:12.122Z,12.90
2018-06-19T11:58:43.210Z,12.70
2018-06-19T12:01:13.635Z,12.23
2018-06-19T12:03:45.286Z,13.80
2018-06-19T12:06:17.057Z,14.07
2018-06-19T12:08:48.778Z,14.00
2018-06-19T12:11:21.025Z,15.67
2018-06-19T12:13:51.571Z,13.93
2018-06-19T12:16:21.961Z,15.40
2018-06-19T12:18:53.035Z,15.00
2018-06-19T12:21:23.690Z,16.57
2018-06-19T12:23:54.489Z,17.30
2018-06-19T12:26:24.542Z,16.70
2018-06-19T12:28:54.698Z,16.97
2018-06-19T12:31:25.651Z,15.40
2018-06-19T12:33:56.179Z,17.40
2018-06-19T12:36:26.548Z,16.00
2018-06-19T12:38:57.892Z,16.17
2018-06-19T12:41:39.143Z,17.20
2018-06-19T12:44:10.116Z,17.07
2018-06-19T12:49:06.085Z,17.13
2018-06-19T12:51:48.035Z,16.73
2018-06-19T12:54:37.236Z,17.27
2018-06-19T12:57:07.666Z,14.00
2018-06-19T12:59:38.066Z,15.00
2018-06-19T13:02:08.945Z,15.23
2018-06-19T13:04:44.081Z,15.30
2018-06-19T13:07:14.458Z,17.37
2018-06-19T13:09:45.208Z,17.00
2018-06-19T13:14:28.496Z,16.70
2018-06-19T13:17:03.826Z,16.90
2018-06-19T13:19:45.031Z,15.67
2018-06-19T13:22:15.304Z,15.00
2018-06-19T13:24:46.010Z,15.70
2018-06-19T13:27:16.446Z,15.87
2018-06-19T13:29:59.085Z,16.37
2018-06-19T13:32:29.906Z,15.80
2018-06-19T13:34:59.912Z,16.53
2018-06-19T13:37:30.160Z,15.17
2018-06-19T13:41:15.477Z,17.50
2018-06-19T13:43:57.215Z,15.47
2018-06-19T13:46:28.370Z,16.00
2018-06-19T13:48:58.613Z,16.23
2018-06-19T13:51:28.918Z,16.27
2018-06-19T13:54:00.029Z,15.03
2018-06-19T13:57:46.399Z,14.90
2018-06-19T14:00:21.455Z,15.53
2018-06-19T14:02:52.082Z,15.03
2018-06-19T14:05:22.637Z,15.50
2018-06-19T14:08:07.798Z,15.20
2018-06-19T14:10:49.091Z,14.33
2018-06-19T14:13:19.700Z,15.10
2018-06-19T14:15:51.417Z,13.80
2018-06-19T14:18:22.397Z,13.63
2018-06-19T14:20:53.345Z,13.50
2018-06-19T14:23:24.930Z,14.03
2018-06-19T14:25:55.514Z,14.60
2018-06-19T14:28:25.977Z,15.90
2018-06-19T14:30:56.471Z,15.33
2018-06-19T14:33:27.696Z,16.70
2018-06-19T14:35:58.736Z,17.37
2018-06-19T14:38:29.288Z,17.00
2018-06-19T14:41:00.519Z,15.73
2018-06-19T14:43:32.200Z,15.30
2018-06-19T14:46:03.450Z,15.87
2018-06-19T14:48:34.078Z,17.23
2018-06-19T14:51:04.994Z,15.93
2018-06-19T14:53:35.932Z,15.87
2018-06-19T14:56:07.566Z,17.60
2018-06-19T14:58:38.012Z,16.07
2018-06-19T15:01:09.328Z,15.40
2018-06-19T15:03:39.966Z,15.93
2018-06-19T15:06:10.686Z,17.00
2018-06-19T15:08:41.178Z,15.93
2018-06-19T15:11:11.919Z,16.17
2018-06-19T15:13:42.129Z,14.90
2018-06-19T15:16:12.982Z,14.97
2018-06-19T15:18:44.907Z,14.43
2018-06-19T15:21:15.502Z,13.70
2018-06-19T15:23:46.098Z,14.50
2018-06-19T15:26:16.591Z,13.30
2018-06-19T15:28:47.177Z,15.63
2018-06-19T15:31:17.601Z,14.03
2018-06-19T15:33:48.248Z,16.00
2018-06-19T15:36:18.680Z,16.57
2018-06-19T15:38:49.304Z,14.70
2018-06-19T15:41:19.670Z,12.00
2018-06-19T15:43:49.882Z,13.70
2018-06-19T15:46:20.579Z,14.37
2018-06-19T15:48:51.374Z,13.70
2018-06-19T15:51:21.778Z,15.70
2018-06-19T15:53:53.833Z,13.60
2018-06-19T15:56:24.784Z,14.27
2018-06-19T15:58:55.455Z,13.40
2018-06-19T16:01:25.944Z,12.60
2018-06-19T16:03:56.380Z,12.90
2018-06-19T16:06:26.942Z,14.33
2018-06-19T16:08:57.827Z,14.80
2018-06-19T16:11:28.968Z,13.50
2018-06-19T16:13:59.659Z,14.50
2018-06-19T16:16:30.533Z,13.67
2018-06-19T16:19:01.390Z,14.33
2018-06-19T16:21:32.382Z,13.70
2018-06-19T16:24:02.737Z,14.30
2018-06-19T16:26:33.308Z,13.20
2018-06-19T16:29:04.824Z,13.97
2018-06-19T16:31:35.326Z,12.87
2018-06-19T16:34:06.229Z,12.10
2018-06-19T16:36:36.746Z,13.23
2018-06-19T16:39:10.057Z,12.90
2018-06-19T16:41:40.923Z,13.10
2018-06-19T16:44:11.133Z,12.87
2018-06-19T16:46:41.875Z,12.93
2018-06-19T16:49:12.045Z,14.37
2018-06-19T16:51:42.339Z,13.00
2018-06-19T16:54:13.083Z,12.77
2018-06-19T16:56:44.145Z,14.10
2018-06-19T16:59:14.393Z,13.23
2018-06-19T17:01:45.366Z,13.00
2018-06-19T17:04:15.818Z,12.27
2018-06-19T17:06:46.869Z,13.27
2018-06-19T17:09:17.859Z,11.10
2018-06-19T17:11:48.387Z,12.33
2018-06-19T17:14:19.414Z,11.80
2018-06-19T17:16:49.822Z,11.57
2018-06-19T17:19:20.121Z,11.47
2018-06-19T17:21:51.540Z,11.43
2018-06-19T17:24:21.818Z,11.37
2018-06-19T17:26:52.655Z,10.40
2018-06-19T17:29:23.442Z,11.20
2018-06-19T17:31:53.994Z,10.23
2018-06-19T17:34:24.718Z,11.67
2018-06-19T17:36:55.167Z,10.07
2018-06-19T17:39:25.761Z,10.60
2018-06-19T17:41:56.264Z,8.83
2018-06-19T17:44:27.728Z,9.53
2018-06-19T17:49:36.727Z,11.40
2018-06-19T17:52:07.376Z,9.97
2018-06-19T17:54:37.900Z,9.53
2018-06-19T17:57:09.156Z,9.17
2018-06-19T17:59:39.606Z,8.70
2018-06-19T18:02:10.362Z,8.47
2018-06-19T18:04:41.786Z,9.13
2018-06-19T18:07:12.797Z,8.90
2018-06-19T18:09:43.394Z,7.90
2018-06-19T18:12:13.713Z,8.00
2018-06-19T18:14:44.054Z,8.23
2018-06-19T18:17:15.099Z,6.70
2018-06-19T18:19:46.376Z,6.60
2018-06-19T18:22:17.249Z,7.17
2018-06-19T18:24:48.230Z,7.63
2018-06-19T18:27:18.746Z,7.87
2018-06-19T18:29:49.546Z,7.90
2018-06-19T18:32:20.053Z,5.97
2018-06-19T18:34:50.735Z,7.97
2018-06-19T18:37:21.270Z,7.63
2018-06-19T18:39:52.044Z,8.00
2018-06-19T18:42:22.526Z,7.00
2018-06-19T18:44:53.366Z,7.87
2018-06-19T18:47:24.275Z,8.87
2018-06-19T18:49:55.468Z,7.80
2018-06-19T18:52:25.197Z,8.80
2018-06-19T18:54:55.816Z,7.97
2018-06-19T18:57:26.875Z,7.87
2018-06-19T18:59:57.201Z,7.50
2018-06-19T19:02:28.353Z,8.80
2018-06-19T19:05:00.127Z,8.00
2018-06-19T19:07:30.823Z,8.10
2018-06-19T19:10:07.582Z,7.97
2018-06-19T19:12:37.514Z,7.73
2018-06-19T19:15:15.117Z,7.07
2018-06-19T19:17:50.731Z,8.40
2018-06-19T19:20:21.214Z,8.30
2018-06-19T19:22:52.146Z,7.93
2018-06-19T19:25:22.370Z,7.80
2018-06-19T19:27:58.386Z,6.90
2018-06-19T19:30:29.138Z,6.80
2018-06-19T19:33:01.875Z,6.10
2018-06-19T19:35:32.302Z,5.10
2018-06-19T19:38:10.310Z,7.50
2018-06-19T19:40:40.826Z,6.77
2018-06-19T19:43:11.415Z,7.10
2018-06-19T19:45:43.107Z,6.20
2018-06-19T19:48:19.002Z,7.47
2018-06-19T19:50:49.363Z,6.80
2018-06-19T19:53:20.967Z,8.17
2018-06-19T19:55:57.380Z,7.67
2018-06-19T19:58:35.654Z,7.10
2018-06-19T20:01:06.089Z,7.47
2018-06-19T20:03:36.466Z,7.47
2018-06-19T20:06:06.952Z,7.87
2018-06-19T20:08:38.964Z,6.70
2018-06-19T20:11:10.424Z,7.60
2018-06-19T20:13:41.229Z,6.43
2018-06-19T20:16:11.859Z,7.00
2018-06-19T20:18:42.206Z,6.77
2018-06-19T20:21:13.129Z,7.00
2018-06-19T20:23:43.693Z,7.33
2018-06-19T20:26:13.994Z,6.60
2018-06-19T20:28:45.168Z,7.93
2018-06-19T20:31:15.690Z,8.37
2018-06-19T20:33:46.693Z,8.80
2018-06-19T20:36:17.039Z,8.53
2018-06-19T20:38:47.906Z,7.20
2018-06-19T20:41:18.866Z,9.50
2018-06-19T20:43:49.633Z,8.30
2018-06-19T20:46:19.986Z,8.57
2018-06-19T20:48:50.311Z,8.50
2018-06-19T20:51:20.663Z,8.77
2018-06-19T20:53:51.141Z,9.57
2018-06-19T20:56:21.870Z,9.40
2018-06-19T20:58:52.345Z,8.80
2018-06-19T21:01:23.411Z,7.67
2018-06-19T21:03:53.994Z,8.60
2018-06-19T21:06:24.508Z,8.20
2018-06-19T21:08:55.434Z,8.07
2018-06-19T21:11:25.994Z,7.47
2018-06-19T21:13:56.449Z,7.90
2018-06-19T21:16:26.871Z,8.60
2018-06-19T21:18:57.387Z,7.20
2018-06-19T21:21:27.818Z,7.80
2018-06-19T21:23:58.575Z,7.47
2018-06-19T21:26:29.665Z,7.70
2018-06-19T21:29:00.021Z,7.63
2018-06-19T21:31:31.867Z,8.40
2018-06-19T21:34:03.252Z,7.30
2018-06-19T21:36:33.443Z,8.27
2018-06-19T21:39:04.367Z,7.23
2018-06-19T21:41:34.599Z,6.60
2018-06-19T21:44:05.468Z,7.30
2018-06-19T21:46:38.814Z,6.60
2018-06-19T21:49:11.671Z,7.30
2018-06-19T21:51:42.526Z,6.90
2018-06-19T21:54:13.543Z,7.07
2018-06-19T21:56:44.119Z,7.23
2018-06-19T21:59:14.651Z,8.07
2018-06-19T22:01:45.039Z,7.70
2018-06-19T22:04:15.587Z,9.73
2018-06-19T22:06:45.913Z,8.70
2018-06-19T22:09:16.533Z,9.10
2018-06-19T22:11:47.235Z,7.93
2018-06-19T22:14:18.151Z,8.33
2018-06-19T22:16:48.683Z,6.73
2018-06-19T22:19:19.193Z,7.20
2018-06-19T22:21:49.894Z,7.47
2018-06-19T22:24:20.878Z,9.97
2018-06-19T22:26:51.120Z,8.77
2018-06-19T22:29:21.673Z,8.33
2018-06-19T22:31:52.135Z,8.37
2018-06-19T22:34:23.314Z,8.80
2018-06-19T22:36:54.696Z,9.20
2018-06-19T22:39:24.547Z,8.13
2018-06-19T22:41:55.122Z,8.83
2018-06-19T22:44:25.506Z,8.13
2018-06-19T22:46:56.130Z,8.20
2018-06-19T22:49:26.665Z,8.80
2018-06-19T22:51:57.649Z,7.80
2018-06-19T22:54:28.011Z,8.07
2018-06-19T22:56:58.041Z,8.20
2018-06-19T22:59:28.706Z,9.07
2018-06-19T23:01:59.199Z,8.93
2018-06-19T23:04:29.821Z,8.57
2018-06-19T23:07:02.049Z,8.77
2018-06-19T23:09:32.813Z,8.93
2018-06-19T23:12:04.243Z,8.87
2018-06-19T23:14:34.626Z,8.53
2018-06-19T23:17:05.433Z,9.63
2018-06-19T23:19:35.966Z,8.40
2018-06-19T23:22:06.249Z,8.67
2018-06-19T23:24:37.315Z,9.90
2018-06-19T23:27:08.122Z,9.00
2018-06-19T23:29:38.804Z,9.80
2018-06-19T23:32:09.183Z,8.80
2018-06-19T23:34:39.564Z,9.83
2018-06-19T23:37:10.254Z,11.10
2018-06-19T23:39:40.904Z,12.23
2018-06-19T23:42:11.162Z,9.87
2018-06-19T23:44:41.676Z,11.20
2018-06-19T23:47:12.424Z,10.00
2018-06-19T23:49:44.478Z,9.43
2018-06-19T23:52:14.744Z,8.83
2018-06-19T23:54:45.306Z,9.10
2018-06-19T23:57:15.721Z,10.27
2018-06-19T23:59:46.158Z,10.50
